createdAt,value
2018-03-11T00:02:00.937Z,29.33
2018-03-11T00:04:28.414Z,28.47
2018-03-11T00:06:56.784Z,28.80
2018-03-11T00:09:25.029Z,29.57
2018-03-11T00:11:52.525Z,29.17
2018-03-11T00:14:20.760Z,29.43
2018-03-11T00:16:48.240Z,29.10
2018-03-11T00:19:15.697Z,27.37
2018-03-11T00:21:43.957Z,29.80
2018-03-11T00:24:11.421Z,29.80
2018-03-11T00:26:39.061Z,29.93
2018-03-11T00:29:06.529Z,29.47
2018-03-11T00:31:34.013Z,29.97
2018-03-11T00:34:01.482Z,30.93
2018-03-11T00:36:28.964Z,28.70
2018-03-11T00:38:56.429Z,31.43
2018-03-11T00:41:23.905Z,30.60
2018-03-11T00:43:51.386Z,30.43
2018-03-11T00:46:19.624Z,31.10
2018-03-11T00:48:47.105Z,30.63
2018-03-11T00:51:14.571Z,35.13
2018-03-11T00:53:42.062Z,34.40
2018-03-11T00:56:09.528Z,33.67
2018-03-11T00:58:37.021Z,37.17
2018-03-11T01:01:04.484Z,36.23
2018-03-11T01:03:31.957Z,39.27
2018-03-11T01:05:59.466Z,39.87
2018-03-11T01:08:26.948Z,38.60
2018-03-11T01:10:54.419Z,41.70
2018-03-11T01:13:21.913Z,41.00
2018-03-11T01:15:50.146Z,40.07
2018-03-11T01:18:17.640Z,46.80
2018-03-11T01:20:45.874Z,43.90
2018-03-11T01:23:13.353Z,44.03
2018-03-11T01:25:40.812Z,45.17
2018-03-11T01:28:08.300Z,50.13
2018-03-11T01:30:35.772Z,50.10
2018-03-11T01:33:03.253Z,51.40
2018-03-11T01:35:30.733Z,45.67
2018-03-11T01:37:58.200Z,47.67
2018-03-11T01:40:25.685Z,51.37
2018-03-11T01:42:53.169Z,42.60
2018-03-11T01:45:20.641Z,43.30
2018-03-11T01:47:48.108Z,39.03
2018-03-11T01:50:15.601Z,40.53
2018-03-11T01:52:55.669Z,44.13
2018-03-11T01:55:23.150Z,38.77
2018-03-11T01:57:50.661Z,45.43
2018-03-11T02:00:18.143Z,41.07
2018-03-11T02:02:45.618Z,42.40
2018-03-11T02:05:13.090Z,38.40
2018-03-11T02:07:40.552Z,40.30
2018-03-11T02:10:08.032Z,40.43
2018-03-11T02:12:35.489Z,39.20
2018-03-11T02:15:02.989Z,40.87
2018-03-11T02:17:30.456Z,40.77
2018-03-11T02:19:57.924Z,46.30
2018-03-11T02:22:25.405Z,41.03
2018-03-11T02:24:52.878Z,42.83
2018-03-11T02:27:20.350Z,43.17
2018-03-11T02:29:48.580Z,42.77
2018-03-11T02:32:16.060Z,45.23
2018-03-11T02:34:43.539Z,43.93
2018-03-11T02:37:11.796Z,50.47
2018-03-11T02:39:39.268Z,48.27
2018-03-11T02:42:06.744Z,45.40
2018-03-11T02:44:34.221Z,47.73
2018-03-11T02:47:01.713Z,44.53
2018-03-11T02:49:29.184Z,43.13
2018-03-11T02:51:57.473Z,44.07
2018-03-11T02:54:25.588Z,42.30
2018-03-11T02:56:53.076Z,40.80
2018-03-11T02:59:20.545Z,39.07
2018-03-11T03:01:48.024Z,40.27
2018-03-11T03:04:16.269Z,38.30
2018-03-11T03:06:43.753Z,37.67
2018-03-11T03:09:11.228Z,37.87
2018-03-11T03:11:39.472Z,38.50
2018-03-11T03:14:06.939Z,40.47
2018-03-11T03:16:34.419Z,40.13
2018-03-11T03:19:02.653Z,41.93
2018-03-11T03:21:30.116Z,40.23
2018-03-11T03:23:57.601Z,43.03
2018-03-11T03:26:25.832Z,39.53
2018-03-11T03:28:53.319Z,40.37
2018-03-11T03:31:20.787Z,42.00
2018-03-11T03:33:49.033Z,42.37
2018-03-11T03:36:16.502Z,42.83
2018-03-11T03:38:44.756Z,40.27
2018-03-11T03:41:12.218Z,43.33
2018-03-11T03:43:39.723Z,41.50
2018-03-11T03:46:07.940Z,40.33
2018-03-11T03:48:35.444Z,41.33
2018-03-11T03:51:03.675Z,42.00
2018-03-11T03:53:31.161Z,41.67
2018-03-11T03:55:58.624Z,40.07
2018-03-11T03:58:26.116Z,40.53
2018-03-11T04:00:53.592Z,42.00
2018-03-11T04:03:21.073Z,41.43
2018-03-11T04:05:48.537Z,38.80
2018-03-11T04:08:16.020Z,38.97
2018-03-11T04:10:44.260Z,39.23
2018-03-11T04:13:11.760Z,36.87
2018-03-11T04:15:39.255Z,39.20
2018-03-11T04:18:06.716Z,39.40
2018-03-11T04:20:34.188Z,38.47
2018-03-11T04:23:01.654Z,37.33
2018-03-11T04:25:29.124Z,39.73
2018-03-11T04:27:56.589Z,38.53
2018-03-11T04:30:24.067Z,39.50
2018-03-11T04:32:51.529Z,38.67
2018-03-11T04:35:19.016Z,38.83
2018-03-11T04:37:46.474Z,38.77
2018-03-11T04:40:13.953Z,37.03
2018-03-11T04:42:41.435Z,35.27
2018-03-11T04:45:09.672Z,35.77
2018-03-11T04:47:37.132Z,35.50
2018-03-11T04:50:04.609Z,34.53
2018-03-11T04:52:32.079Z,34.30
2018-03-11T04:55:00.325Z,33.60
2018-03-11T04:57:27.789Z,33.97
2018-03-11T04:59:55.292Z,31.53
2018-03-11T05:02:22.768Z,31.77
2018-03-11T05:04:50.228Z,32.93
2018-03-11T05:07:17.733Z,31.23
2018-03-11T05:09:45.286Z,29.37
2018-03-11T05:12:12.757Z,30.23
2018-03-11T05:14:41.001Z,29.97
2018-03-11T05:17:08.474Z,29.37
2018-03-11T05:19:36.688Z,29.00
2018-03-11T05:22:04.166Z,28.23
2018-03-11T05:24:31.629Z,27.47
2018-03-11T05:26:59.111Z,25.73
2018-03-11T05:29:26.573Z,25.57
2018-03-11T05:31:54.140Z,25.53
2018-03-11T05:34:21.600Z,26.43
2018-03-11T05:36:49.080Z,26.20
2018-03-11T05:39:17.313Z,25.03
2018-03-11T05:41:44.773Z,25.60
2018-03-11T05:44:12.257Z,25.33
2018-03-11T05:46:39.751Z,26.97
2018-03-11T05:49:07.229Z,24.80
2018-03-11T05:51:34.686Z,25.37
2018-03-11T05:54:02.180Z,25.60
2018-03-11T05:56:29.661Z,24.83
2018-03-11T05:58:57.140Z,26.20
2018-03-11T06:01:24.596Z,24.27
2018-03-11T06:03:52.092Z,25.50
2018-03-11T06:06:19.544Z,24.50
2018-03-11T06:08:47.057Z,25.33
2018-03-11T06:11:14.528Z,25.80
2018-03-11T06:13:42.001Z,25.07
2018-03-11T06:16:09.477Z,25.73
2018-03-11T06:18:37.047Z,24.53
2018-03-11T06:21:04.620Z,25.07
2018-03-11T06:23:32.879Z,23.33
2018-03-11T06:26:00.338Z,24.63
2018-03-11T06:28:27.793Z,23.93
2018-03-11T06:30:56.041Z,24.30
2018-03-11T06:33:23.544Z,24.83
2018-03-11T06:35:51.789Z,23.70
2018-03-11T06:38:19.265Z,23.63
2018-03-11T06:40:46.741Z,24.53
2018-03-11T06:43:14.978Z,23.00
2018-03-11T06:45:42.603Z,23.07
2018-03-11T06:48:10.065Z,23.93
2018-03-11T06:50:37.545Z,24.23
2018-03-11T06:53:05.005Z,22.40
2018-03-11T06:55:32.490Z,24.87
2018-03-11T06:57:59.982Z,24.00
2018-03-11T07:00:27.476Z,24.23
2018-03-11T07:02:54.935Z,24.60
2018-03-11T07:05:22.412Z,25.43
2018-03-11T07:07:49.874Z,24.53
2018-03-11T07:10:17.337Z,24.80
2018-03-11T07:12:45.593Z,25.60
2018-03-11T07:15:13.110Z,26.23
2018-03-11T07:17:40.609Z,27.20
2018-03-11T07:20:08.078Z,25.90
2018-03-11T07:22:35.560Z,25.93
2018-03-11T07:25:03.798Z,26.37
2018-03-11T07:27:31.288Z,25.40
2018-03-11T07:29:59.513Z,24.47
2018-03-11T07:32:27.002Z,23.40
2018-03-11T07:34:54.460Z,23.23
2018-03-11T07:37:21.945Z,22.27
2018-03-11T07:39:49.420Z,22.37
2018-03-11T07:42:16.917Z,19.30
2018-03-11T07:44:44.389Z,20.17
2018-03-11T07:47:11.865Z,21.70
2018-03-11T07:49:40.100Z,21.07
2018-03-11T07:52:07.593Z,19.73
2018-03-11T07:54:35.833Z,19.00
2018-03-11T07:57:03.302Z,19.50
2018-03-11T07:59:30.786Z,19.67
2018-03-11T08:01:59.028Z,19.13
2018-03-11T08:04:26.615Z,18.83
2018-03-11T08:06:54.848Z,18.73
2018-03-11T08:09:22.329Z,18.43
2018-03-11T08:11:49.788Z,18.07
2018-03-11T08:14:17.535Z,18.97
2018-03-11T08:16:45.021Z,17.70
2018-03-11T08:19:12.500Z,18.07
2018-03-11T08:21:39.969Z,17.73
2018-03-11T08:24:07.465Z,17.83
2018-03-11T08:26:34.935Z,17.57
2018-03-11T08:29:02.432Z,17.13
2018-03-11T08:31:29.901Z,16.47
2018-03-11T08:33:57.392Z,16.33
2018-03-11T08:36:24.862Z,17.17
2018-03-11T08:38:53.154Z,17.07
2018-03-11T08:41:21.401Z,16.43
2018-03-11T08:43:48.887Z,15.97
2018-03-11T08:46:16.350Z,16.87
2018-03-11T08:48:44.588Z,17.43
2018-03-11T08:51:12.069Z,18.17
2018-03-11T08:53:39.529Z,16.90
2018-03-11T08:56:07.015Z,16.60
2018-03-11T08:58:34.485Z,17.27
2018-03-11T09:01:01.974Z,16.60
2018-03-11T09:03:29.448Z,15.73
2018-03-11T09:05:56.941Z,16.47
2018-03-11T09:08:25.172Z,16.30
2018-03-11T09:10:52.759Z,17.07
2018-03-11T09:13:20.993Z,16.37
2018-03-11T09:15:48.513Z,16.30
2018-03-11T09:18:16.726Z,15.93
2018-03-11T09:20:44.209Z,15.90
2018-03-11T09:23:11.677Z,17.70
2018-03-11T09:25:39.928Z,17.70
2018-03-11T09:28:07.398Z,21.35
2018-03-11T09:30:36.847Z,19.63
2018-03-11T09:33:04.341Z,17.20
2018-03-11T09:35:31.828Z,17.40
2018-03-11T09:37:59.301Z,17.07
2018-03-11T09:40:27.711Z,17.60
2018-03-11T09:42:56.004Z,16.17
2018-03-11T09:45:23.567Z,16.87
2018-03-11T09:47:51.089Z,17.53
2018-03-11T09:50:18.659Z,16.77
2018-03-11T09:52:46.146Z,17.53
2018-03-11T09:55:13.671Z,16.63
2018-03-11T09:57:41.190Z,17.60
2018-03-11T10:00:08.665Z,16.70
2018-03-11T10:02:36.914Z,17.60
2018-03-11T10:05:04.387Z,17.50
2018-03-11T10:07:32.642Z,18.13
2018-03-11T10:10:00.869Z,17.70
2018-03-11T10:12:28.357Z,16.70
2018-03-11T10:14:55.834Z,15.07
2018-03-11T10:17:23.353Z,15.40
2018-03-11T10:19:50.817Z,16.03
2018-03-11T10:22:18.336Z,17.33
2018-03-11T10:24:46.585Z,16.23
2018-03-11T10:27:14.070Z,17.33
2018-03-11T10:29:42.312Z,19.00
2018-03-11T10:32:09.818Z,18.13
2018-03-11T10:34:37.321Z,17.73
2018-03-11T10:37:04.785Z,17.57
2018-03-11T10:39:32.273Z,16.90
2018-03-11T10:42:00.508Z,16.90
2018-03-11T10:44:28.050Z,16.20
2018-03-11T10:46:55.494Z,15.10
2018-03-11T10:49:22.977Z,16.43
2018-03-11T10:51:50.456Z,16.47
2018-03-11T10:54:18.741Z,15.47
2018-03-11T10:56:46.983Z,16.13
2018-03-11T10:59:14.457Z,18.80
2018-03-11T11:01:45.897Z,17.60
2018-03-11T11:04:15.200Z,17.00
2018-03-11T11:06:42.679Z,17.07
2018-03-11T11:09:10.173Z,15.87
2018-03-11T11:11:37.649Z,15.37
2018-03-11T11:14:05.124Z,16.40
2018-03-11T11:16:32.600Z,14.83
2018-03-11T11:19:00.107Z,15.53
2018-03-11T11:21:27.595Z,15.83
2018-03-11T11:23:55.068Z,14.57
2018-03-11T11:26:22.571Z,15.03
2018-03-11T11:28:50.049Z,14.67
2018-03-11T11:31:17.557Z,15.20
2018-03-11T11:33:45.034Z,13.87
2018-03-11T11:36:12.527Z,13.13
2018-03-11T11:41:13.835Z,12.50
2018-03-11T11:43:41.299Z,12.73
2018-03-11T11:46:09.613Z,13.67
2018-03-11T11:48:37.839Z,13.93
2018-03-11T11:51:05.305Z,14.43
2018-03-11T11:53:33.588Z,14.47
2018-03-11T11:56:01.848Z,16.53
2018-03-11T11:58:29.321Z,15.50
2018-03-11T12:00:57.626Z,14.07
2018-03-11T12:03:25.106Z,14.67
2018-03-11T12:05:52.636Z,15.97
2018-03-11T12:08:21.012Z,16.73
2018-03-11T12:10:48.485Z,16.80
2018-03-11T12:13:16.004Z,17.97
2018-03-11T12:15:44.251Z,17.67
2018-03-11T12:18:11.742Z,17.20
2018-03-11T12:20:39.228Z,16.67
2018-03-11T12:23:06.733Z,17.10
2018-03-11T12:25:34.207Z,17.10
2018-03-11T12:28:02.471Z,16.20
2018-03-11T12:30:29.957Z,15.73
2018-03-11T12:32:57.442Z,16.13
2018-03-11T12:35:24.914Z,16.27
2018-03-11T12:37:52.394Z,16.30
2018-03-11T12:40:21.366Z,16.50
2018-03-11T12:42:48.868Z,17.20
2018-03-11T12:45:17.147Z,16.73
2018-03-11T12:47:44.597Z,16.93
2018-03-11T12:50:12.829Z,17.87
2018-03-11T12:52:40.307Z,16.97
2018-03-11T12:55:07.810Z,16.03
2018-03-11T12:57:35.293Z,15.70
2018-03-11T13:00:02.766Z,15.30
2018-03-11T13:02:30.257Z,16.13
2018-03-11T13:04:58.513Z,16.23
2018-03-11T13:07:26.004Z,16.30
2018-03-11T13:09:54.253Z,16.73
2018-03-11T13:12:22.524Z,16.43
2018-03-11T13:14:49.994Z,15.90
2018-03-11T13:17:18.249Z,16.43
2018-03-11T13:19:46.490Z,16.00
2018-03-11T13:22:13.987Z,15.67
2018-03-11T13:24:41.464Z,16.07
2018-03-11T13:27:09.715Z,15.70
2018-03-11T13:29:37.180Z,15.93
2018-03-11T13:32:16.628Z,14.13
2018-03-11T13:34:44.893Z,14.67
2018-03-11T13:37:13.170Z,15.50
2018-03-11T13:39:52.819Z,15.27
2018-03-11T13:42:20.302Z,13.53
2018-03-11T13:44:47.770Z,14.07
2018-03-11T13:47:15.289Z,13.97
2018-03-11T13:49:42.751Z,13.63
2018-03-11T13:52:22.844Z,15.13
2018-03-11T13:54:50.314Z,15.43
2018-03-11T14:00:25.693Z,14.23
2018-03-11T14:02:53.189Z,13.80
2018-03-11T14:05:21.422Z,13.63
2018-03-11T14:07:48.912Z,13.03
2018-03-11T14:10:17.334Z,13.50
2018-03-11T14:12:44.853Z,12.43
2018-03-11T14:15:13.101Z,12.57
2018-03-11T14:17:40.585Z,13.03
2018-03-11T14:20:08.830Z,12.20
2018-03-11T14:22:36.298Z,12.20
2018-03-11T14:25:03.817Z,12.67
2018-03-11T14:27:31.290Z,13.03
2018-03-11T14:29:58.768Z,11.83
2018-03-11T14:32:26.236Z,11.67
2018-03-11T14:34:53.740Z,11.63
2018-03-11T14:37:21.205Z,12.33
2018-03-11T14:39:48.686Z,12.20
2018-03-11T14:42:16.185Z,11.67
2018-03-11T14:44:43.673Z,11.07
2018-03-11T14:47:11.136Z,10.00
2018-03-11T14:49:38.656Z,10.47
2018-03-11T14:52:06.895Z,10.00
2018-03-11T14:54:34.397Z,9.60
2018-03-11T14:57:03.130Z,9.37
2018-03-11T14:59:30.632Z,9.80
2018-03-11T15:01:58.861Z,9.30
2018-03-11T15:04:26.361Z,9.47
2018-03-11T15:06:54.579Z,8.73
2018-03-11T15:09:22.062Z,8.23
2018-03-11T15:11:49.526Z,8.23
2018-03-11T15:14:17.009Z,8.27
2018-03-11T15:16:45.233Z,7.03
2018-03-11T15:19:12.771Z,7.77
2018-03-11T15:21:40.241Z,7.27
2018-03-11T15:24:07.762Z,6.50
2018-03-11T15:26:36.037Z,7.33
2018-03-11T15:29:04.303Z,7.47
2018-03-11T15:31:31.784Z,7.37
2018-03-11T15:34:00.025Z,6.97
2018-03-11T15:36:27.489Z,7.20
2018-03-11T15:38:54.966Z,6.90
2018-03-11T15:41:23.203Z,7.40
2018-03-11T15:43:50.684Z,8.17
2018-03-11T15:46:18.920Z,8.27
2018-03-11T15:48:46.415Z,7.50
2018-03-11T15:51:13.878Z,8.13
2018-03-11T15:53:42.121Z,7.80
2018-03-11T15:56:09.584Z,8.20
2018-03-11T15:58:37.068Z,8.07
2018-03-11T16:01:05.289Z,8.13
2018-03-11T16:03:32.780Z,8.60
2018-03-11T16:06:00.264Z,8.30
2018-03-11T16:08:28.526Z,8.83
2018-03-11T16:10:55.992Z,8.37
2018-03-11T16:13:24.233Z,8.63
2018-03-11T16:15:51.697Z,8.30
2018-03-11T16:18:19.178Z,8.63
2018-03-11T16:20:47.422Z,9.83
2018-03-11T16:23:15.018Z,13.67
2018-03-11T16:25:43.257Z,11.13
2018-03-11T16:28:10.737Z,8.97
2018-03-11T16:30:38.210Z,8.80
2018-03-11T16:33:06.437Z,9.20
2018-03-11T16:35:33.918Z,9.03
2018-03-11T16:38:01.393Z,9.33
2018-03-11T16:40:28.897Z,8.83
2018-03-11T16:42:56.440Z,9.77
2018-03-11T16:45:23.949Z,9.10
2018-03-11T16:47:51.453Z,10.43
2018-03-11T16:50:18.948Z,9.70
2018-03-11T16:52:46.461Z,8.50
2018-03-11T16:55:14.795Z,8.33
2018-03-11T16:57:42.266Z,8.50
2018-03-11T17:00:09.797Z,7.60
2018-03-11T17:02:37.279Z,7.67
2018-03-11T17:05:04.809Z,8.23
2018-03-11T17:07:32.307Z,8.53
2018-03-11T17:09:59.846Z,9.57
2018-03-11T17:12:27.306Z,8.90
2018-03-11T17:14:54.784Z,9.53
2018-03-11T17:17:23.023Z,10.00
2018-03-11T17:19:50.504Z,9.80
2018-03-11T17:22:18.070Z,10.53
2018-03-11T17:24:46.337Z,10.60
2018-03-11T17:27:15.319Z,11.63
2018-03-11T17:29:42.805Z,12.23
2018-03-11T17:32:11.047Z,11.93
2018-03-11T17:34:38.569Z,12.80
2018-03-11T17:37:06.038Z,12.77
2018-03-11T17:39:33.534Z,12.73
2018-03-11T17:42:00.996Z,12.43
2018-03-11T17:44:28.556Z,12.50
2018-03-11T17:46:56.021Z,12.20
2018-03-11T17:49:24.268Z,12.83
2018-03-11T17:51:51.734Z,12.57
2018-03-11T17:54:19.213Z,13.50
2018-03-11T17:56:47.447Z,12.70
2018-03-11T17:59:14.960Z,13.57
2018-03-11T18:01:43.193Z,13.57
2018-03-11T18:04:10.687Z,13.63
2018-03-11T18:06:38.933Z,13.87
2018-03-11T18:09:06.419Z,14.03
2018-03-11T18:11:34.653Z,13.77
2018-03-11T18:14:02.133Z,14.13
2018-03-11T18:16:29.606Z,14.60
2018-03-11T18:18:57.854Z,14.77
2018-03-11T18:21:25.440Z,16.40
2018-03-11T18:23:53.694Z,14.93
2018-03-11T18:26:21.170Z,14.90
2018-03-11T18:28:49.426Z,14.07
2018-03-11T18:31:16.900Z,14.17
2018-03-11T18:33:45.153Z,14.37
2018-03-11T18:36:12.632Z,14.33
2018-03-11T18:38:40.124Z,14.80
2018-03-11T18:41:07.616Z,15.27
2018-03-11T18:43:35.153Z,13.83
2018-03-11T18:46:03.365Z,14.43
2018-03-11T18:48:30.832Z,14.43
2018-03-11T18:50:58.320Z,15.80
2018-03-11T18:53:25.787Z,15.73
2018-03-11T18:55:53.317Z,14.83
2018-03-11T18:58:21.558Z,15.47
2018-03-11T19:00:49.032Z,16.10
2018-03-11T19:03:16.493Z,16.73
2018-03-11T19:05:43.981Z,15.70
2018-03-11T19:08:11.465Z,15.73
2018-03-11T19:10:38.992Z,15.97
2018-03-11T19:13:06.471Z,17.37
2018-03-11T19:15:33.965Z,16.87
2018-03-11T19:18:01.457Z,16.13
2018-03-11T19:20:29.043Z,16.37
2018-03-11T19:22:56.542Z,16.87
2018-03-11T19:25:24.021Z,18.17
2018-03-11T19:27:52.252Z,18.23
2018-03-11T19:30:19.731Z,17.47
2018-03-11T19:32:47.232Z,18.53
2018-03-11T19:35:15.475Z,18.77
2018-03-11T19:37:42.952Z,17.20
2018-03-11T19:40:11.198Z,17.50
2018-03-11T19:42:40.190Z,17.20
2018-03-11T19:45:07.688Z,16.37
2018-03-11T19:47:35.172Z,16.90
2018-03-11T19:50:02.661Z,17.97
2018-03-11T19:52:30.130Z,17.20
2018-03-11T19:54:57.632Z,17.50
2018-03-11T19:57:25.114Z,16.87
2018-03-11T19:59:52.604Z,17.03
2018-03-11T20:02:20.067Z,18.20
2018-03-11T20:04:47.533Z,17.83
2018-03-11T20:07:15.790Z,18.67
2018-03-11T20:09:43.261Z,17.90
2018-03-11T20:12:11.509Z,18.70
2018-03-11T20:14:38.972Z,21.20
2018-03-11T20:17:06.470Z,20.10
2018-03-11T20:19:33.964Z,18.33
2018-03-11T20:22:01.444Z,17.37
2018-03-11T20:24:28.933Z,15.73
2018-03-11T20:26:57.184Z,16.33
2018-03-11T20:29:24.662Z,16.77
2018-03-11T20:31:52.925Z,17.57
2018-03-11T20:34:20.393Z,18.13
2018-03-11T20:36:48.664Z,17.27
2018-03-11T20:39:16.892Z,19.03
2018-03-11T20:41:44.377Z,18.40
2018-03-11T20:44:11.850Z,18.47
2018-03-11T20:46:39.342Z,18.33
2018-03-11T20:49:06.804Z,18.77
2018-03-11T20:51:34.303Z,17.77
2018-03-11T20:54:01.785Z,17.57
2018-03-11T20:56:29.256Z,18.57
2018-03-11T20:58:57.508Z,17.80
2018-03-11T21:01:25.772Z,18.60
2018-03-11T21:03:53.344Z,17.87
2018-03-11T21:06:21.665Z,17.57
2018-03-11T21:08:49.224Z,18.03
2018-03-11T21:11:16.741Z,18.23
2018-03-11T21:13:44.301Z,19.20
2018-03-11T21:16:11.795Z,18.60
2018-03-11T21:18:39.249Z,18.33
2018-03-11T21:21:06.745Z,18.90
2018-03-11T21:23:34.213Z,18.33
2018-03-11T21:26:01.715Z,17.87
2018-03-11T21:28:29.182Z,18.27
2018-03-11T21:30:56.661Z,19.17
2018-03-11T21:33:24.135Z,18.73
2018-03-11T21:35:51.632Z,19.10
2018-03-11T21:38:19.871Z,18.37
2018-03-11T21:40:48.200Z,19.40
2018-03-11T21:43:15.661Z,19.03
2018-03-11T21:45:43.148Z,18.37
2018-03-11T21:48:10.614Z,19.23
2018-03-11T21:50:38.111Z,20.33
2018-03-11T21:53:05.708Z,18.43
2018-03-11T21:55:33.198Z,19.03
2018-03-11T21:58:00.687Z,19.70
2018-03-11T22:00:28.934Z,18.80
2018-03-11T22:02:56.410Z,18.97
2018-03-11T22:05:23.902Z,19.37
2018-03-11T22:07:51.387Z,19.80
2018-03-11T22:10:18.872Z,18.60
2018-03-11T22:12:46.338Z,18.63
2018-03-11T22:15:13.920Z,19.30
2018-03-11T22:17:42.157Z,19.67
2018-03-11T22:20:09.642Z,20.13
2018-03-11T22:22:37.875Z,19.17
2018-03-11T22:25:05.344Z,19.63
2018-03-11T22:27:32.830Z,19.50
2018-03-11T22:30:00.315Z,19.90
2018-03-11T22:32:27.809Z,18.70
2018-03-11T22:34:55.279Z,19.13
2018-03-11T22:37:22.761Z,18.90
2018-03-11T22:39:51.003Z,18.53
2018-03-11T22:42:18.486Z,19.10
2018-03-11T22:44:46.012Z,18.27
2018-03-11T22:47:13.499Z,19.50
2018-03-11T22:49:40.973Z,19.67
2018-03-11T22:52:09.228Z,19.53
2018-03-11T22:54:36.692Z,19.17
2018-03-11T22:57:04.173Z,19.53
2018-03-11T22:59:31.655Z,20.97
2018-03-11T23:01:59.144Z,20.20
2018-03-11T23:04:26.636Z,19.80
2018-03-11T23:06:54.885Z,19.77
2018-03-11T23:09:22.369Z,19.73
2018-03-11T23:11:50.629Z,19.93
2018-03-11T23:14:18.888Z,18.93
2018-03-11T23:16:46.368Z,19.97
2018-03-11T23:19:23.556Z,19.83
2018-03-11T23:21:51.802Z,18.43
2018-03-11T23:24:19.290Z,19.37
2018-03-11T23:26:47.538Z,19.10
2018-03-11T23:29:15.001Z,19.50
2018-03-11T23:31:42.494Z,19.30
2018-03-11T23:34:10.014Z,19.50
2018-03-11T23:36:37.504Z,19.57
2018-03-11T23:39:05.737Z,20.30
2018-03-11T23:41:33.217Z,19.57
2018-03-11T23:44:01.617Z,19.87
2018-03-11T23:46:29.877Z,19.37
2018-03-11T23:48:58.113Z,18.87
2018-03-11T23:51:25.572Z,19.33
2018-03-11T23:53:53.058Z,19.53
2018-03-11T23:56:20.524Z,19.93
2018-03-11T23:58:48.790Z,21.47
